sensor_id;sensor_type;location;lat;lon;timestamp;P1;durP1;ratioP1;P2;durP2;ratioP2
62037;SDS011;47991;42.974;12.082;2023-11-22T00:00:14;0.60;;;0.40;;
62037;SDS011;47991;42.974;12.082;2023-11-22T00:03:01;0.20;;;0.20;;
62037;SDS011;47991;42.974;12.082;2023-11-22T00:05:28;0.80;;;0.30;;
62037;SDS011;47991;42.974;12.082;2023-11-22T00:07:55;0.40;;;0.30;;
62037;SDS011;47991;42.974;12.082;2023-11-22T00:10:23;0.60;;;0.40;;
62037;SDS011;47991;42.974;12.082;2023-11-22T00:12:50;0.30;;;0.20;;
62037;SDS011;47991;42.974;12.082;2023-11-22T00:15:17;1.30;;;0.70;;
62037;SDS011;47991;42.974;12.082;2023-11-22T00:17:45;1.40;;;0.50;;
62037;SDS011;47991;42.974;12.082;2023-11-22T00:20:12;0.50;;;0.40;;
62037;SDS011;47991;42.974;12.082;2023-11-22T00:22:39;1.40;;;0.30;;
62037;SDS011;47991;42.974;12.082;2023-11-22T00:25:07;0.50;;;0.50;;
62037;SDS011;47991;42.974;12.082;2023-11-22T00:27:35;3.40;;;0.80;;
62037;SDS011;47991;42.974;12.082;2023-11-22T00:30:04;0.40;;;0.40;;
62037;SDS011;47991;42.974;12.082;2023-11-22T00:32:31;2.30;;;0.60;;
62037;SDS011;47991;42.974;12.082;2023-11-22T00:34:58;2.50;;;0.60;;
62037;SDS011;47991;42.974;12.082;2023-11-22T00:37:25;0.40;;;0.40;;
62037;SDS011;47991;42.974;12.082;2023-11-22T00:39:52;1.30;;;0.50;;
62037;SDS011;47991;42.974;12.082;2023-11-22T00:42:19;2.80;;;0.70;;
62037;SDS011;47991;42.974;12.082;2023-11-22T00:44:46;1.20;;;0.40;;
62037;SDS011;47991;42.974;12.082;2023-11-22T00:47:14;2.00;;;0.50;;
62037;SDS011;47991;42.974;12.082;2023-11-22T00:49:43;2.10;;;0.50;;
62037;SDS011;47991;42.974;12.082;2023-11-22T00:52:10;1.70;;;0.40;;
62037;SDS011;47991;42.974;12.082;2023-11-22T00:54:36;0.80;;;0.50;;
62037;SDS011;47991;42.974;12.082;2023-11-22T00:57:03;1.70;;;0.40;;
62037;SDS011;47991;42.974;12.082;2023-11-22T01:02:19;0.50;;;0.40;;
62037;SDS011;47991;42.974;12.082;2023-11-22T01:04:47;0.60;;;0.40;;
62037;SDS011;47991;42.974;12.082;2023-11-22T01:07:14;1.00;;;0.40;;
62037;SDS011;47991;42.974;12.082;2023-11-22T01:09:41;0.50;;;0.50;;
62037;SDS011;47991;42.974;12.082;2023-11-22T01:12:07;3.30;;;0.50;;
62037;SDS011;47991;42.974;12.082;2023-11-22T01:14:35;1.40;;;0.70;;
62037;SDS011;47991;42.974;12.082;2023-11-22T01:17:02;2.30;;;0.90;;
62037;SDS011;47991;42.974;12.082;2023-11-22T01:19:29;4.30;;;1.20;;
62037;SDS011;47991;42.974;12.082;2023-11-22T01:21:56;3.30;;;1.00;;
62037;SDS011;47991;42.974;12.082;2023-11-22T01:24:23;1.50;;;0.80;;
62037;SDS011;47991;42.974;12.082;2023-11-22T01:26:49;4.60;;;1.10;;
62037;SDS011;47991;42.974;12.082;2023-11-22T01:29:17;2.60;;;0.90;;
62037;SDS011;47991;42.974;12.082;2023-11-22T01:31:44;1.00;;;0.60;;
62037;SDS011;47991;42.974;12.082;2023-11-22T01:34:11;1.00;;;0.60;;
62037;SDS011;47991;42.974;12.082;2023-11-22T01:36:41;2.00;;;0.40;;
62037;SDS011;47991;42.974;12.082;2023-11-22T01:39:13;1.50;;;0.30;;
62037;SDS011;47991;42.974;12.082;2023-11-22T01:41:40;0.60;;;0.50;;
62037;SDS011;47991;42.974;12.082;2023-11-22T01:44:10;0.50;;;0.30;;
62037;SDS011;47991;42.974;12.082;2023-11-22T01:46:37;2.10;;;0.50;;
62037;SDS011;47991;42.974;12.082;2023-11-22T01:49:04;1.50;;;0.70;;
62037;SDS011;47991;42.974;12.082;2023-11-22T01:51:31;1.00;;;0.50;;
62037;SDS011;47991;42.974;12.082;2023-11-22T01:53:58;0.40;;;0.40;;
62037;SDS011;47991;42.974;12.082;2023-11-22T01:56:26;0.60;;;0.50;;
62037;SDS011;47991;42.974;12.082;2023-11-22T01:58:54;1.20;;;0.40;;
62037;SDS011;47991;42.974;12.082;2023-11-22T02:01:22;1.10;;;0.50;;
62037;SDS011;47991;42.974;12.082;2023-11-22T02:03:51;0.40;;;0.30;;
62037;SDS011;47991;42.974;12.082;2023-11-22T02:06:19;1.10;;;0.40;;
62037;SDS011;47991;42.974;12.082;2023-11-22T02:08:48;0.60;;;0.20;;
62037;SDS011;47991;42.974;12.082;2023-11-22T02:11:16;4.50;;;0.70;;
62037;SDS011;47991;42.974;12.082;2023-11-22T02:13:48;0.90;;;0.50;;
62037;SDS011;47991;42.974;12.082;2023-11-22T02:16:19;1.80;;;0.40;;
62037;SDS011;47991;42.974;12.082;2023-11-22T02:18:47;1.70;;;0.60;;
62037;SDS011;47991;42.974;12.082;2023-11-22T02:21:17;0.60;;;0.40;;
62037;SDS011;47991;42.974;12.082;2023-11-22T02:23:44;0.40;;;0.40;;
62037;SDS011;47991;42.974;12.082;2023-11-22T02:26:11;1.10;;;0.50;;
62037;SDS011;47991;42.974;12.082;2023-11-22T02:28:38;0.40;;;0.40;;
62037;SDS011;47991;42.974;12.082;2023-11-22T02:31:05;2.10;;;0.50;;
62037;SDS011;47991;42.974;12.082;2023-11-22T02:33:32;1.40;;;0.60;;
62037;SDS011;47991;42.974;12.082;2023-11-22T02:35:59;1.60;;;0.60;;
62037;SDS011;47991;42.974;12.082;2023-11-22T02:38:28;2.60;;;0.70;;
62037;SDS011;47991;42.974;12.082;2023-11-22T02:40:55;0.80;;;0.40;;
62037;SDS011;47991;42.974;12.082;2023-11-22T02:43:22;0.90;;;0.50;;
62037;SDS011;47991;42.974;12.082;2023-11-22T02:45:49;2.20;;;0.60;;
62037;SDS011;47991;42.974;12.082;2023-11-22T02:48:17;0.60;;;0.50;;
62037;SDS011;47991;42.974;12.082;2023-11-22T02:50:44;0.30;;;0.30;;
62037;SDS011;47991;42.974;12.082;2023-11-22T02:53:11;0.40;;;0.30;;
62037;SDS011;47991;42.974;12.082;2023-11-22T02:55:38;0.60;;;0.40;;
62037;SDS011;47991;42.974;12.082;2023-11-22T02:58:05;1.60;;;0.40;;
62037;SDS011;47991;42.974;12.082;2023-11-22T03:00:32;0.90;;;0.40;;
62037;SDS011;47991;42.974;12.082;2023-11-22T03:03:00;1.70;;;0.40;;
62037;SDS011;47991;42.974;12.082;2023-11-22T03:05:30;0.50;;;0.40;;
62037;SDS011;47991;42.974;12.082;2023-11-22T03:07:57;1.30;;;0.60;;
62037;SDS011;47991;42.974;12.082;2023-11-22T03:10:24;1.30;;;0.50;;
62037;SDS011;47991;42.974;12.082;2023-11-22T03:12:51;0.70;;;0.50;;
62037;SDS011;47991;42.974;12.082;2023-11-22T03:15:18;2.20;;;0.50;;
62037;SDS011;47991;42.974;12.082;2023-11-22T03:17:45;0.30;;;0.30;;
62037;SDS011;47991;42.974;12.082;2023-11-22T03:20:12;0.40;;;0.30;;
62037;SDS011;47991;42.974;12.082;2023-11-22T03:22:38;0.60;;;0.40;;
62037;SDS011;47991;42.974;12.082;2023-11-22T03:25:05;1.00;;;0.50;;
62037;SDS011;47991;42.974;12.082;2023-11-22T03:27:36;0.40;;;0.40;;
62037;SDS011;47991;42.974;12.082;2023-11-22T03:30:04;2.10;;;0.50;;
62037;SDS011;47991;42.974;12.082;2023-11-22T03:32:38;1.10;;;0.40;;
62037;SDS011;47991;42.974;12.082;2023-11-22T03:35:06;2.70;;;0.60;;
62037;SDS011;47991;42.974;12.082;2023-11-22T03:37:34;3.30;;;0.70;;
62037;SDS011;47991;42.974;12.082;2023-11-22T03:40:01;2.20;;;0.60;;
62037;SDS011;47991;42.974;12.082;2023-11-22T03:42:29;1.00;;;0.70;;
62037;SDS011;47991;42.974;12.082;2023-11-22T03:44:56;0.80;;;0.50;;
62037;SDS011;47991;42.974;12.082;2023-11-22T03:47:25;1.20;;;0.70;;
62037;SDS011;47991;42.974;12.082;2023-11-22T03:49:52;1.10;;;0.70;;
62037;SDS011;47991;42.974;12.082;2023-11-22T03:52:18;1.40;;;0.50;;
62037;SDS011;47991;42.974;12.082;2023-11-22T03:54:45;1.60;;;0.60;;
62037;SDS011;47991;42.974;12.082;2023-11-22T03:57:12;2.30;;;0.50;;
62037;SDS011;47991;42.974;12.082;2023-11-22T03:59:40;1.60;;;0.40;;
62037;SDS011;47991;42.974;12.082;2023-11-22T04:02:07;1.70;;;0.50;;
62037;SDS011;47991;42.974;12.082;2023-11-22T04:04:34;2.40;;;0.70;;
62037;SDS011;47991;42.974;12.082;2023-11-22T04:07:01;1.60;;;0.60;;
62037;SDS011;47991;42.974;12.082;2023-11-22T04:09:28;2.50;;;0.90;;
62037;SDS011;47991;42.974;12.082;2023-11-22T04:11:55;2.70;;;0.40;;
62037;SDS011;47991;42.974;12.082;2023-11-22T04:14:22;0.70;;;0.50;;
62037;SDS011;47991;42.974;12.082;2023-11-22T04:16:49;3.50;;;0.60;;
62037;SDS011;47991;42.974;12.082;2023-11-22T04:19:16;1.20;;;0.40;;
62037;SDS011;47991;42.974;12.082;2023-11-22T04:21:43;3.10;;;0.50;;
62037;SDS011;47991;42.974;12.082;2023-11-22T04:24:10;1.90;;;0.60;;
62037;SDS011;47991;42.974;12.082;2023-11-22T04:26:38;1.90;;;0.80;;
62037;SDS011;47991;42.974;12.082;2023-11-22T04:29:05;2.20;;;0.70;;
62037;SDS011;47991;42.974;12.082;2023-11-22T04:31:32;1.60;;;0.70;;
62037;SDS011;47991;42.974;12.082;2023-11-22T04:33:59;4.20;;;0.80;;
62037;SDS011;47991;42.974;12.082;2023-11-22T04:36:26;1.20;;;0.70;;
62037;SDS011;47991;42.974;12.082;2023-11-22T04:38:53;1.70;;;0.70;;
62037;SDS011;47991;42.974;12.082;2023-11-22T04:41:20;1.60;;;0.70;;
62037;SDS011;47991;42.974;12.082;2023-11-22T04:43:47;2.60;;;0.70;;
62037;SDS011;47991;42.974;12.082;2023-11-22T04:46:13;1.30;;;0.70;;
62037;SDS011;47991;42.974;12.082;2023-11-22T04:48:40;1.50;;;0.70;;
62037;SDS011;47991;42.974;12.082;2023-11-22T04:51:11;3.50;;;0.80;;
62037;SDS011;47991;42.974;12.082;2023-11-22T04:53:37;4.30;;;0.80;;
62037;SDS011;47991;42.974;12.082;2023-11-22T04:56:04;2.00;;;0.60;;
62037;SDS011;47991;42.974;12.082;2023-11-22T04:58:32;0.70;;;0.50;;
62037;SDS011;47991;42.974;12.082;2023-11-22T05:01:00;3.00;;;0.80;;
62037;SDS011;47991;42.974;12.082;2023-11-22T05:03:28;1.40;;;0.70;;
62037;SDS011;47991;42.974;12.082;2023-11-22T05:05:55;1.60;;;0.70;;
62037;SDS011;47991;42.974;12.082;2023-11-22T05:08:21;0.80;;;0.70;;
62037;SDS011;47991;42.974;12.082;2023-11-22T05:10:48;1.10;;;0.60;;
62037;SDS011;47991;42.974;12.082;2023-11-22T05:13:15;2.90;;;0.70;;
62037;SDS011;47991;42.974;12.082;2023-11-22T05:15:42;1.60;;;0.70;;
62037;SDS011;47991;42.974;12.082;2023-11-22T05:18:09;2.10;;;1.00;;
62037;SDS011;47991;42.974;12.082;2023-11-22T05:20:35;2.10;;;0.80;;
62037;SDS011;47991;42.974;12.082;2023-11-22T05:23:02;4.20;;;0.70;;
62037;SDS011;47991;42.974;12.082;2023-11-22T05:25:30;1.90;;;0.70;;
62037;SDS011;47991;42.974;12.082;2023-11-22T05:27:57;0.70;;;0.60;;
62037;SDS011;47991;42.974;12.082;2023-11-22T05:30:25;1.10;;;0.60;;
62037;SDS011;47991;42.974;12.082;2023-11-22T05:32:52;0.80;;;0.60;;
62037;SDS011;47991;42.974;12.082;2023-11-22T05:35:19;1.80;;;0.60;;
62037;SDS011;47991;42.974;12.082;2023-11-22T05:37:46;1.10;;;0.50;;
62037;SDS011;47991;42.974;12.082;2023-11-22T05:40:13;3.10;;;0.80;;
62037;SDS011;47991;42.974;12.082;2023-11-22T05:42:42;0.70;;;0.70;;
62037;SDS011;47991;42.974;12.082;2023-11-22T05:45:09;1.80;;;0.80;;
62037;SDS011;47991;42.974;12.082;2023-11-22T05:47:36;5.50;;;0.90;;
62037;SDS011;47991;42.974;12.082;2023-11-22T05:50:04;3.40;;;0.70;;
62037;SDS011;47991;42.974;12.082;2023-11-22T05:52:31;2.90;;;0.70;;
62037;SDS011;47991;42.974;12.082;2023-11-22T05:54:58;1.40;;;0.50;;
62037;SDS011;47991;42.974;12.082;2023-11-22T05:57:25;2.90;;;0.80;;
62037;SDS011;47991;42.974;12.082;2023-11-22T05:59:52;3.30;;;0.90;;
62037;SDS011;47991;42.974;12.082;2023-11-22T06:02:18;3.30;;;0.90;;
62037;SDS011;47991;42.974;12.082;2023-11-22T06:04:45;7.20;;;2.20;;
62037;SDS011;47991;42.974;12.082;2023-11-22T06:07:12;8.90;;;2.60;;
62037;SDS011;47991;42.974;12.082;2023-11-22T06:09:39;11.90;;;3.00;;
62037;SDS011;47991;42.974;12.082;2023-11-22T06:12:06;6.30;;;1.70;;
62037;SDS011;47991;42.974;12.082;2023-11-22T06:14:33;4.10;;;1.00;;
62037;SDS011;47991;42.974;12.082;2023-11-22T06:17:00;3.50;;;0.90;;
62037;SDS011;47991;42.974;12.082;2023-11-22T06:19:26;4.80;;;1.00;;
62037;SDS011;47991;42.974;12.082;2023-11-22T06:21:53;4.40;;;1.00;;
62037;SDS011;47991;42.974;12.082;2023-11-22T06:24:20;1.70;;;0.80;;
62037;SDS011;47991;42.974;12.082;2023-11-22T06:26:48;3.70;;;0.80;;
62037;SDS011;47991;42.974;12.082;2023-11-22T06:29:16;1.70;;;0.80;;
62037;SDS011;47991;42.974;12.082;2023-11-22T06:31:42;3.70;;;1.00;;
62037;SDS011;47991;42.974;12.082;2023-11-22T06:34:09;2.70;;;0.80;;
62037;SDS011;47991;42.974;12.082;2023-11-22T06:36:36;3.10;;;0.80;;
62037;SDS011;47991;42.974;12.082;2023-11-22T06:39:03;4.10;;;0.90;;
62037;SDS011;47991;42.974;12.082;2023-11-22T06:41:31;3.10;;;0.80;;
62037;SDS011;47991;42.974;12.082;2023-11-22T06:43:58;2.50;;;0.90;;
62037;SDS011;47991;42.974;12.082;2023-11-22T06:46:25;1.60;;;0.60;;
62037;SDS011;47991;42.974;12.082;2023-11-22T06:48:52;7.10;;;1.20;;
62037;SDS011;47991;42.974;12.082;2023-11-22T06:51:19;3.10;;;0.90;;
62037;SDS011;47991;42.974;12.082;2023-11-22T06:53:46;4.10;;;1.10;;
62037;SDS011;47991;42.974;12.082;2023-11-22T06:56:13;3.20;;;1.00;;
62037;SDS011;47991;42.974;12.082;2023-11-22T06:58:41;1.50;;;0.70;;
62037;SDS011;47991;42.974;12.082;2023-11-22T07:01:07;2.60;;;0.70;;
62037;SDS011;47991;42.974;12.082;2023-11-22T07:03:36;4.50;;;1.00;;
62037;SDS011;47991;42.974;12.082;2023-11-22T07:06:04;2.40;;;0.90;;
62037;SDS011;47991;42.974;12.082;2023-11-22T07:08:31;1.60;;;0.80;;
62037;SDS011;47991;42.974;12.082;2023-11-22T07:10:58;4.30;;;0.80;;
62037;SDS011;47991;42.974;12.082;2023-11-22T07:13:25;3.20;;;1.00;;
62037;SDS011;47991;42.974;12.082;2023-11-22T07:15:53;4.60;;;0.90;;
62037;SDS011;47991;42.974;12.082;2023-11-22T07:18:20;3.80;;;0.80;;
62037;SDS011;47991;42.974;12.082;2023-11-22T07:20:50;3.40;;;1.40;;
62037;SDS011;47991;42.974;12.082;2023-11-22T07:23:17;2.90;;;0.90;;
62037;SDS011;47991;42.974;12.082;2023-11-22T07:25:46;5.50;;;0.80;;
62037;SDS011;47991;42.974;12.082;2023-11-22T07:28:13;2.40;;;0.70;;
62037;SDS011;47991;42.974;12.082;2023-11-22T07:30:40;5.30;;;0.90;;
62037;SDS011;47991;42.974;12.082;2023-11-22T07:33:08;3.00;;;0.90;;
62037;SDS011;47991;42.974;12.082;2023-11-22T07:35:35;3.10;;;1.00;;
62037;SDS011;47991;42.974;12.082;2023-11-22T07:49:19;2.30;;;1.00;;
62037;SDS011;47991;42.974;12.082;2023-11-22T07:51:48;1.80;;;0.80;;
62037;SDS011;47991;42.974;12.082;2023-11-22T07:54:18;2.40;;;1.00;;
62037;SDS011;47991;42.974;12.082;2023-11-22T07:56:48;2.80;;;0.80;;
62037;SDS011;47991;42.974;12.082;2023-11-22T07:59:16;2.40;;;1.10;;
62037;SDS011;47991;42.974;12.082;2023-11-22T08:01:43;3.10;;;0.90;;
62037;SDS011;47991;42.974;12.082;2023-11-22T08:04:10;4.00;;;0.90;;
62037;SDS011;47991;42.974;12.082;2023-11-22T08:06:37;0.60;;;0.60;;
62037;SDS011;47991;42.974;12.082;2023-11-22T08:09:05;0.70;;;0.70;;
62037;SDS011;47991;42.974;12.082;2023-11-22T08:11:32;1.30;;;0.70;;
62037;SDS011;47991;42.974;12.082;2023-11-22T08:13:58;2.10;;;0.70;;
62037;SDS011;47991;42.974;12.082;2023-11-22T08:16:25;1.30;;;0.60;;
62037;SDS011;47991;42.974;12.082;2023-11-22T08:18:53;0.70;;;0.60;;
62037;SDS011;47991;42.974;12.082;2023-11-22T08:21:20;1.20;;;0.60;;
62037;SDS011;47991;42.974;12.082;2023-11-22T08:23:47;2.40;;;1.20;;
62037;SDS011;47991;42.974;12.082;2023-11-22T08:26:14;1.80;;;0.80;;
62037;SDS011;47991;42.974;12.082;2023-11-22T08:28:41;3.20;;;0.90;;
62037;SDS011;47991;42.974;12.082;2023-11-22T08:31:08;3.70;;;1.10;;
62037;SDS011;47991;42.974;12.082;2023-11-22T08:33:38;2.30;;;1.00;;
62037;SDS011;47991;42.974;12.082;2023-11-22T08:36:06;2.70;;;0.90;;
62037;SDS011;47991;42.974;12.082;2023-11-22T08:38:35;2.80;;;1.10;;
62037;SDS011;47991;42.974;12.082;2023-11-22T08:41:06;3.00;;;0.90;;
62037;SDS011;47991;42.974;12.082;2023-11-22T08:43:33;0.80;;;0.70;;
62037;SDS011;47991;42.974;12.082;2023-11-22T08:46:01;0.90;;;0.70;;
62037;SDS011;47991;42.974;12.082;2023-11-22T08:48:31;2.90;;;0.80;;
62037;SDS011;47991;42.974;12.082;2023-11-22T08:50:58;1.50;;;0.60;;
62037;SDS011;47991;42.974;12.082;2023-11-22T08:53:25;1.90;;;0.70;;
62037;SDS011;47991;42.974;12.082;2023-11-22T08:55:51;4.30;;;1.20;;
62037;SDS011;47991;42.974;12.082;2023-11-22T08:58:21;1.50;;;0.70;;
62037;SDS011;47991;42.974;12.082;2023-11-22T09:00:49;2.70;;;1.00;;
62037;SDS011;47991;42.974;12.082;2023-11-22T09:03:16;1.50;;;0.60;;
62037;SDS011;47991;42.974;12.082;2023-11-22T09:05:43;1.60;;;0.90;;
62037;SDS011;47991;42.974;12.082;2023-11-22T09:08:12;2.20;;;0.90;;
62037;SDS011;47991;42.974;12.082;2023-11-22T09:10:42;2.60;;;0.80;;
62037;SDS011;47991;42.974;12.082;2023-11-22T09:13:09;2.00;;;0.90;;
62037;SDS011;47991;42.974;12.082;2023-11-22T09:15:36;1.40;;;0.80;;
62037;SDS011;47991;42.974;12.082;2023-11-22T09:18:05;1.40;;;0.60;;
62037;SDS011;47991;42.974;12.082;2023-11-22T09:20:34;2.90;;;2.10;;
62037;SDS011;47991;42.974;12.082;2023-11-22T09:23:01;1.00;;;0.70;;
62037;SDS011;47991;42.974;12.082;2023-11-22T09:25:27;0.60;;;0.60;;
62037;SDS011;47991;42.974;12.082;2023-11-22T09:27:55;2.20;;;0.80;;
62037;SDS011;47991;42.974;12.082;2023-11-22T09:30:26;0.70;;;0.60;;
62037;SDS011;47991;42.974;12.082;2023-11-22T09:33:01;2.40;;;1.00;;
62037;SDS011;47991;42.974;12.082;2023-11-22T09:35:30;1.30;;;0.80;;
62037;SDS011;47991;42.974;12.082;2023-11-22T09:38:00;1.40;;;0.80;;
62037;SDS011;47991;42.974;12.082;2023-11-22T09:40:29;3.60;;;0.80;;
62037;SDS011;47991;42.974;12.082;2023-11-22T09:42:58;3.20;;;1.00;;
62037;SDS011;47991;42.974;12.082;2023-11-22T09:45:28;2.40;;;0.80;;
62037;SDS011;47991;42.974;12.082;2023-11-22T09:47:56;2.30;;;0.90;;
62037;SDS011;47991;42.974;12.082;2023-11-22T09:53:54;2.00;;;0.80;;
62037;SDS011;47991;42.974;12.082;2023-11-22T09:56:18;2.50;;;1.00;;
62037;SDS011;47991;42.974;12.082;2023-11-22T09:58:46;1.60;;;0.90;;
62037;SDS011;47991;42.974;12.082;2023-11-22T10:01:18;2.90;;;1.20;;
62037;SDS011;47991;42.974;12.082;2023-11-22T10:03:44;2.30;;;1.00;;
62037;SDS011;47991;42.974;12.082;2023-11-22T10:06:12;2.20;;;0.80;;
62037;SDS011;47991;42.974;12.082;2023-11-22T10:08:41;3.20;;;0.90;;
62037;SDS011;47991;42.974;12.082;2023-11-22T10:11:08;3.30;;;1.00;;
62037;SDS011;47991;42.974;12.082;2023-11-22T10:13:35;2.00;;;1.10;;
62037;SDS011;47991;42.974;12.082;2023-11-22T10:16:09;3.20;;;1.10;;
62037;SDS011;47991;42.974;12.082;2023-11-22T14:45:44;6.80;;;1.70;;
62037;SDS011;47991;42.974;12.082;2023-11-22T14:51:21;4.80;;;1.50;;
62037;SDS011;47991;42.974;12.082;2023-11-22T14:53:48;4.20;;;1.50;;
62037;SDS011;47991;42.974;12.082;2023-11-22T14:56:14;2.50;;;1.60;;
62037;SDS011;47991;42.974;12.082;2023-11-22T14:58:42;5.00;;;2.50;;
62037;SDS011;47991;42.974;12.082;2023-11-22T15:01:08;5.40;;;1.50;;
62037;SDS011;47991;42.974;12.082;2023-11-22T15:03:36;6.00;;;1.80;;
62037;SDS011;47991;42.974;12.082;2023-11-22T15:06:03;5.30;;;1.50;;
62037;SDS011;47991;42.974;12.082;2023-11-22T15:08:32;8.10;;;1.70;;
62037;SDS011;47991;42.974;12.082;2023-11-22T15:11:00;4.70;;;1.30;;
62037;SDS011;47991;42.974;12.082;2023-11-22T15:13:27;3.20;;;1.40;;
62037;SDS011;47991;42.974;12.082;2023-11-22T15:15:54;7.00;;;1.90;;
62037;SDS011;47991;42.974;12.082;2023-11-22T15:18:23;5.10;;;1.50;;
62037;SDS011;47991;42.974;12.082;2023-11-22T15:20:51;7.60;;;1.90;;
62037;SDS011;47991;42.974;12.082;2023-11-22T15:23:19;5.40;;;1.70;;
62037;SDS011;47991;42.974;12.082;2023-11-22T15:25:49;11.00;;;1.90;;
62037;SDS011;47991;42.974;12.082;2023-11-22T15:28:16;4.60;;;1.60;;
62037;SDS011;47991;42.974;12.082;2023-11-22T15:30:49;11.70;;;1.50;;
62037;SDS011;47991;42.974;12.082;2023-11-22T15:33:16;4.80;;;1.70;;
62037;SDS011;47991;42.974;12.082;2023-11-22T15:35:43;3.70;;;1.30;;
62037;SDS011;47991;42.974;12.082;2023-11-22T15:38:10;6.40;;;2.10;;
62037;SDS011;47991;42.974;12.082;2023-11-22T15:40:37;5.80;;;1.50;;
62037;SDS011;47991;42.974;12.082;2023-11-22T15:43:05;7.70;;;1.50;;
62037;SDS011;47991;42.974;12.082;2023-11-22T15:45:33;9.50;;;2.00;;
62037;SDS011;47991;42.974;12.082;2023-11-22T15:48:00;3.20;;;1.40;;
62037;SDS011;47991;42.974;12.082;2023-11-22T15:50:27;8.10;;;1.30;;
62037;SDS011;47991;42.974;12.082;2023-11-22T15:52:54;4.40;;;1.10;;
62037;SDS011;47991;42.974;12.082;2023-11-22T15:55:21;6.50;;;1.70;;
62037;SDS011;47991;42.974;12.082;2023-11-22T15:57:48;3.60;;;1.30;;
62037;SDS011;47991;42.974;12.082;2023-11-22T16:00:15;4.40;;;1.50;;
62037;SDS011;47991;42.974;12.082;2023-11-22T16:02:43;4.30;;;1.40;;
62037;SDS011;47991;42.974;12.082;2023-11-22T16:05:10;3.70;;;1.30;;
62037;SDS011;47991;42.974;12.082;2023-11-22T16:07:39;4.50;;;1.50;;
62037;SDS011;47991;42.974;12.082;2023-11-22T16:10:07;5.70;;;1.50;;
62037;SDS011;47991;42.974;12.082;2023-11-22T16:12:35;2.40;;;1.20;;
62037;SDS011;47991;42.974;12.082;2023-11-22T16:15:02;5.30;;;1.60;;
62037;SDS011;47991;42.974;12.082;2023-11-22T16:17:29;3.90;;;1.30;;
62037;SDS011;47991;42.974;12.082;2023-11-22T16:19:59;6.80;;;1.70;;
62037;SDS011;47991;42.974;12.082;2023-11-22T16:22:28;4.70;;;1.40;;
62037;SDS011;47991;42.974;12.082;2023-11-22T16:24:56;8.90;;;1.60;;
62037;SDS011;47991;42.974;12.082;2023-11-22T16:27:23;5.60;;;1.50;;
62037;SDS011;47991;42.974;12.082;2023-11-22T16:29:50;4.40;;;1.40;;
62037;SDS011;47991;42.974;12.082;2023-11-22T16:32:17;6.80;;;1.70;;
62037;SDS011;47991;42.974;12.082;2023-11-22T16:34:45;11.80;;;1.90;;
62037;SDS011;47991;42.974;12.082;2023-11-22T16:37:12;9.10;;;1.70;;
62037;SDS011;47991;42.974;12.082;2023-11-22T16:39:39;7.30;;;1.60;;
62037;SDS011;47991;42.974;12.082;2023-11-22T16:42:07;6.50;;;1.90;;
62037;SDS011;47991;42.974;12.082;2023-11-22T16:44:34;5.00;;;1.20;;
62037;SDS011;47991;42.974;12.082;2023-11-22T16:47:01;5.10;;;1.80;;
62037;SDS011;47991;42.974;12.082;2023-11-22T16:49:31;7.00;;;1.60;;
62037;SDS011;47991;42.974;12.082;2023-11-22T16:51:58;6.70;;;1.50;;
62037;SDS011;47991;42.974;12.082;2023-11-22T16:54:25;4.80;;;1.70;;
62037;SDS011;47991;42.974;12.082;2023-11-22T16:56:52;5.70;;;1.50;;
62037;SDS011;47991;42.974;12.082;2023-11-22T16:59:19;5.50;;;1.30;;
62037;SDS011;47991;42.974;12.082;2023-11-22T17:01:45;7.00;;;1.50;;
62037;SDS011;47991;42.974;12.082;2023-11-22T17:04:12;8.60;;;1.60;;
62037;SDS011;47991;42.974;12.082;2023-11-22T17:06:39;6.80;;;1.50;;
62037;SDS011;47991;42.974;12.082;2023-11-22T17:09:06;6.60;;;1.60;;
62037;SDS011;47991;42.974;12.082;2023-11-22T17:11:34;9.00;;;1.90;;
62037;SDS011;47991;42.974;12.082;2023-11-22T17:14:03;7.10;;;1.50;;
62037;SDS011;47991;42.974;12.082;2023-11-22T17:16:30;8.10;;;1.90;;
62037;SDS011;47991;42.974;12.082;2023-11-22T17:18:58;6.30;;;1.90;;
62037;SDS011;47991;42.974;12.082;2023-11-22T17:21:25;5.10;;;1.40;;
62037;SDS011;47991;42.974;12.082;2023-11-22T17:23:52;4.30;;;1.40;;
62037;SDS011;47991;42.974;12.082;2023-11-22T17:26:19;5.40;;;1.30;;
62037;SDS011;47991;42.974;12.082;2023-11-22T17:28:46;7.50;;;1.70;;
62037;SDS011;47991;42.974;12.082;2023-11-22T17:31:14;4.50;;;1.60;;
62037;SDS011;47991;42.974;12.082;2023-11-22T17:33:42;8.90;;;1.70;;
62037;SDS011;47991;42.974;12.082;2023-11-22T17:36:10;6.20;;;1.50;;
62037;SDS011;47991;42.974;12.082;2023-11-22T17:38:38;5.90;;;1.50;;
62037;SDS011;47991;42.974;12.082;2023-11-22T17:41:05;5.00;;;1.70;;
62037;SDS011;47991;42.974;12.082;2023-11-22T17:43:34;7.30;;;1.80;;
62037;SDS011;47991;42.974;12.082;2023-11-22T17:46:02;4.30;;;1.40;;
62037;SDS011;47991;42.974;12.082;2023-11-22T17:48:33;6.10;;;1.70;;
62037;SDS011;47991;42.974;12.082;2023-11-22T17:51:03;4.60;;;1.50;;
62037;SDS011;47991;42.974;12.082;2023-11-22T17:53:30;7.70;;;1.60;;
62037;SDS011;47991;42.974;12.082;2023-11-22T17:55:57;7.50;;;1.50;;
62037;SDS011;47991;42.974;12.082;2023-11-22T17:58:24;6.90;;;1.60;;
62037;SDS011;47991;42.974;12.082;2023-11-22T18:00:52;4.30;;;1.40;;
62037;SDS011;47991;42.974;12.082;2023-11-22T18:03:20;4.70;;;1.50;;
62037;SDS011;47991;42.974;12.082;2023-11-22T18:05:47;5.90;;;1.50;;
62037;SDS011;47991;42.974;12.082;2023-11-22T18:08:14;5.20;;;1.50;;
62037;SDS011;47991;42.974;12.082;2023-11-22T18:10:43;6.90;;;1.70;;
62037;SDS011;47991;42.974;12.082;2023-11-22T18:13:11;7.70;;;1.90;;
62037;SDS011;47991;42.974;12.082;2023-11-22T18:15:37;4.70;;;1.50;;
62037;SDS011;47991;42.974;12.082;2023-11-22T18:18:05;5.80;;;1.70;;
62037;SDS011;47991;42.974;12.082;2023-11-22T18:20:32;5.40;;;1.50;;
62037;SDS011;47991;42.974;12.082;2023-11-22T18:23:01;6.90;;;1.90;;
62037;SDS011;47991;42.974;12.082;2023-11-22T18:28:42;4.70;;;1.60;;
62037;SDS011;47991;42.974;12.082;2023-11-22T18:31:09;6.60;;;1.50;;
62037;SDS011;47991;42.974;12.082;2023-11-22T18:33:37;9.20;;;2.00;;
62037;SDS011;47991;42.974;12.082;2023-11-22T18:36:05;9.30;;;1.60;;
62037;SDS011;47991;42.974;12.082;2023-11-22T18:38:32;7.60;;;1.70;;
62037;SDS011;47991;42.974;12.082;2023-11-22T18:40:59;5.90;;;1.50;;
62037;SDS011;47991;42.974;12.082;2023-11-22T18:43:29;6.70;;;1.90;;
62037;SDS011;47991;42.974;12.082;2023-11-22T18:45:56;10.00;;;2.40;;
62037;SDS011;47991;42.974;12.082;2023-11-22T18:48:30;6.40;;;1.80;;
62037;SDS011;47991;42.974;12.082;2023-11-22T18:50:57;6.40;;;1.90;;
62037;SDS011;47991;42.974;12.082;2023-11-22T18:53:24;6.60;;;1.50;;
62037;SDS011;47991;42.974;12.082;2023-11-22T18:55:54;6.50;;;1.40;;
62037;SDS011;47991;42.974;12.082;2023-11-22T18:58:21;6.20;;;1.80;;
62037;SDS011;47991;42.974;12.082;2023-11-22T19:00:48;5.80;;;1.30;;
62037;SDS011;47991;42.974;12.082;2023-11-22T19:03:16;5.00;;;1.30;;
62037;SDS011;47991;42.974;12.082;2023-11-22T19:05:43;6.10;;;1.80;;
62037;SDS011;47991;42.974;12.082;2023-11-22T19:08:10;4.10;;;1.50;;
62037;SDS011;47991;42.974;12.082;2023-11-22T19:10:37;6.00;;;1.70;;
62037;SDS011;47991;42.974;12.082;2023-11-22T19:13:04;5.10;;;1.40;;
62037;SDS011;47991;42.974;12.082;2023-11-22T19:15:40;8.10;;;1.90;;
62037;SDS011;47991;42.974;12.082;2023-11-22T19:18:12;9.90;;;2.00;;
62037;SDS011;47991;42.974;12.082;2023-11-22T19:20:40;6.50;;;1.60;;
62037;SDS011;47991;42.974;12.082;2023-11-22T19:23:08;6.80;;;1.70;;
62037;SDS011;47991;42.974;12.082;2023-11-22T19:25:35;5.00;;;1.60;;